createdAt,value
2022-09-30T00:05:59.157Z,0
2022-09-30T00:11:46.339Z,0
2022-09-30T00:17:39.772Z,0
2022-09-30T00:23:18.433Z,0
2022-09-30T00:28:58.967Z,0
2022-09-30T00:34:41.441Z,0
2022-09-30T00:40:17.392Z,0
2022-09-30T00:45:56.500Z,0
2022-09-30T00:51:36.501Z,0
2022-09-30T00:57:11.476Z,0
2022-09-30T01:02:55.544Z,0
2022-09-30T01:08:50.927Z,0
2022-09-30T01:14:47.430Z,0
2022-09-30T01:20:22.174Z,2
2022-09-30T01:25:56.999Z,0
2022-09-30T01:31:51.960Z,0
2022-09-30T01:37:37.954Z,0
2022-09-30T01:43:16.013Z,0
2022-09-30T01:48:54.088Z,0
2022-09-30T01:54:31.340Z,0
2022-09-30T02:00:07.289Z,0
2022-09-30T02:05:43.973Z,0
2022-09-30T02:11:22.682Z,0
2022-09-30T02:17:06.439Z,0
2022-09-30T02:22:41.539Z,0
2022-09-30T02:28:24.402Z,0
2022-09-30T02:34:07.891Z,0
2022-09-30T02:40:04.108Z,0
2022-09-30T02:46:05.768Z,0
2022-09-30T02:52:18.358Z,0
2022-09-30T02:57:53.065Z,0
2022-09-30T03:03:28.124Z,0
2022-09-30T03:09:04.037Z,0
2022-09-30T03:14:39.760Z,0
2022-09-30T03:20:22.238Z,0
2022-09-30T03:25:58.449Z,0
2022-09-30T03:31:35.157Z,0
2022-09-30T03:37:11.344Z,0
2022-09-30T03:42:48.577Z,0
2022-09-30T03:48:23.352Z,0
2022-09-30T03:54:03.872Z,0
2022-09-30T03:59:38.706Z,0
2022-09-30T04:05:13.913Z,0
2022-09-30T04:10:49.929Z,0
2022-09-30T04:16:35.138Z,0
2022-09-30T04:22:10.575Z,0
2022-09-30T04:27:51.414Z,0
2022-09-30T04:33:33.600Z,0
2022-09-30T04:39:08.898Z,0
2022-09-30T04:44:48.362Z,0
2022-09-30T04:50:24.249Z,0
2022-09-30T04:56:04.270Z,0
2022-09-30T05:01:40.121Z,0
2022-09-30T05:07:15.918Z,0
2022-09-30T05:12:51.178Z,0
2022-09-30T05:18:26.047Z,0
2022-09-30T05:24:36.201Z,0
2022-09-30T05:30:17.498Z,0
2022-09-30T05:35:56.396Z,2
2022-09-30T05:41:40.200Z,2
2022-09-30T05:47:16.733Z,0
2022-09-30T05:52:51.530Z,0
2022-09-30T05:58:34.123Z,0
2022-09-30T06:04:16.110Z,0
2022-09-30T06:10:13.648Z,1
2022-09-30T06:15:53.227Z,2
2022-09-30T06:21:28.143Z,0
2022-09-30T06:27:16.810Z,0
2022-09-30T06:32:52.099Z,0
2022-09-30T06:38:27.025Z,0
2022-09-30T06:44:18.448Z,0
2022-09-30T06:50:25.172Z,0
2022-09-30T06:56:03.873Z,0
2022-09-30T07:01:45.624Z,0
2022-09-30T07:07:20.539Z,0
2022-09-30T07:12:58.313Z,0
2022-09-30T07:18:33.760Z,0
2022-09-30T07:24:08.842Z,0
2022-09-30T07:30:28.052Z,1
2022-09-30T07:36:04.309Z,0
2022-09-30T07:41:40.842Z,0
2022-09-30T07:47:20.885Z,0
2022-09-30T07:53:22.736Z,0
2022-09-30T07:59:00.963Z,3
2022-09-30T08:04:45.688Z,0
2022-09-30T08:15:56.586Z,0
2022-09-30T08:21:39.044Z,0
2022-09-30T08:27:14.717Z,0
2022-09-30T08:32:51.366Z,0
2022-09-30T08:38:26.660Z,0
2022-09-30T08:44:01.902Z,0
2022-09-30T08:49:36.707Z,0
2022-09-30T08:55:15.232Z,0
2022-09-30T09:00:53.536Z,0
2022-09-30T09:06:29.199Z,0
2022-09-30T09:12:14.250Z,0
2022-09-30T09:18:26.914Z,0
2022-09-30T09:24:08.239Z,0
2022-09-30T09:29:43.394Z,0
2022-09-30T09:35:18.605Z,2
2022-09-30T09:40:54.185Z,0
2022-09-30T09:46:29.851Z,0
2022-09-30T09:52:18.566Z,0
2022-09-30T09:58:02.268Z,0
2022-09-30T10:03:42.934Z,0
2022-09-30T10:09:22.756Z,0
2022-09-30T10:14:58.601Z,7
2022-09-30T10:20:36.189Z,1
2022-09-30T10:26:14.884Z,0
2022-09-30T10:32:01.290Z,0
2022-09-30T10:37:37.485Z,0
2022-09-30T10:43:12.643Z,0
2022-09-30T10:48:47.334Z,0
2022-09-30T10:54:24.318Z,0
2022-09-30T10:59:59.383Z,0
2022-09-30T11:05:34.752Z,0
2022-09-30T11:11:12.874Z,0
2022-09-30T11:16:49.338Z,1
2022-09-30T11:22:24.747Z,0
2022-09-30T11:28:00.532Z,0
2022-09-30T11:33:48.159Z,0
2022-09-30T11:39:28.020Z,0
2022-09-30T11:45:04.120Z,0
2022-09-30T11:50:38.963Z,0
2022-09-30T11:56:14.136Z,0
2022-09-30T12:02:11.583Z,0
2022-09-30T12:07:47.414Z,0
2022-09-30T12:13:22.504Z,0
2022-09-30T12:18:58.151Z,0
2022-09-30T12:24:32.802Z,0
2022-09-30T12:30:07.789Z,0
2022-09-30T12:35:42.811Z,0
2022-09-30T12:41:17.996Z,0
2022-09-30T12:46:53.111Z,0
2022-09-30T12:52:28.112Z,2
2022-09-30T12:58:02.880Z,0
2022-09-30T13:03:37.923Z,0
2022-09-30T13:09:13.209Z,0
2022-09-30T13:14:48.325Z,0
2022-09-30T13:20:23.325Z,0
2022-09-30T13:25:58.707Z,0
2022-09-30T13:31:34.414Z,0
2022-09-30T13:37:13.742Z,0
2022-09-30T13:42:48.896Z,0
2022-09-30T13:48:23.740Z,0
2022-09-30T13:53:58.917Z,0
2022-09-30T13:59:33.964Z,0
2022-09-30T14:05:09.092Z,0
2022-09-30T14:10:44.195Z,0
2022-09-30T14:16:20.294Z,0
2022-09-30T14:21:55.850Z,0
2022-09-30T14:27:30.877Z,0
2022-09-30T14:33:07.387Z,0
2022-09-30T14:38:42.584Z,0
2022-09-30T14:44:17.670Z,0
2022-09-30T14:49:54.535Z,0
2022-09-30T14:55:30.211Z,0
2022-09-30T15:01:05.786Z,0
2022-09-30T15:06:42.188Z,0
2022-09-30T15:12:17.756Z,0
2022-09-30T15:17:52.648Z,0
2022-09-30T15:23:27.942Z,0
2022-09-30T15:29:03.548Z,0
2022-09-30T15:34:38.264Z,0
2022-09-30T15:40:13.295Z,0
2022-09-30T15:45:48.707Z,0
2022-09-30T15:51:24.321Z,0
2022-09-30T15:56:59.095Z,0
2022-09-30T16:02:34.153Z,0
2022-09-30T16:08:09.292Z,0
2022-09-30T16:14:06.184Z,0
2022-09-30T16:19:39.717Z,0
2022-09-30T16:25:15.394Z,2
2022-09-30T16:30:51.578Z,2
2022-09-30T16:36:26.314Z,0
2022-09-30T16:42:01.031Z,2
2022-09-30T16:47:35.841Z,0
2022-09-30T16:53:12.029Z,2
2022-09-30T16:58:46.732Z,4
2022-09-30T17:04:23.061Z,2
2022-09-30T17:09:59.225Z,3
2022-09-30T17:15:34.143Z,0
2022-09-30T17:21:09.186Z,0
2022-09-30T17:26:49.828Z,3
2022-09-30T17:32:24.707Z,0
2022-09-30T17:37:59.707Z,2
2022-09-30T17:43:34.990Z,0
2022-09-30T17:49:09.947Z,0
2022-09-30T17:54:53.297Z,0
2022-09-30T18:00:28.612Z,2
2022-09-30T18:06:04.671Z,0
2022-09-30T18:11:46.373Z,0
2022-09-30T18:17:22.219Z,2
2022-09-30T18:22:57.321Z,0
2022-09-30T18:28:33.430Z,0
2022-09-30T18:34:09.324Z,2
2022-09-30T18:39:45.060Z,6
2022-09-30T18:45:20.236Z,4
2022-09-30T18:50:55.171Z,2
2022-09-30T18:56:30.884Z,3
2022-09-30T19:02:06.543Z,0
2022-09-30T19:07:41.604Z,2
2022-09-30T19:13:38.829Z,0
2022-09-30T19:19:12.672Z,0
2022-09-30T19:24:54.937Z,0
2022-09-30T19:30:29.718Z,0
2022-09-30T19:36:16.029Z,0
2022-09-30T19:41:51.323Z,2
2022-09-30T19:47:34.689Z,3
2022-09-30T19:53:31.249Z,0
2022-09-30T19:59:06.552Z,2
2022-09-30T20:04:41.560Z,0
2022-09-30T20:10:17.420Z,3
2022-09-30T20:15:53.266Z,2
2022-09-30T20:21:28.611Z,2
2022-09-30T20:27:03.942Z,2
2022-09-30T20:32:39.436Z,0
2022-09-30T20:38:15.447Z,0
2022-09-30T20:43:50.714Z,4
2022-09-30T20:49:25.639Z,0
2022-09-30T20:55:01.604Z,3
2022-09-30T21:00:37.521Z,2
2022-09-30T21:06:13.205Z,2
2022-09-30T21:12:15.385Z,2
2022-09-30T21:17:48.544Z,2
2022-09-30T21:23:26.751Z,6
2022-09-30T21:29:01.895Z,6
2022-09-30T21:34:36.977Z,2
2022-09-30T21:40:23.576Z,2
2022-09-30T21:45:59.230Z,0
2022-09-30T21:51:36.725Z,2
2022-09-30T21:57:25.175Z,10
2022-09-30T22:02:59.975Z,8
2022-09-30T22:09:02.247Z,10
2022-09-30T22:14:40.915Z,6
2022-09-30T22:20:16.006Z,6
2022-09-30T22:25:50.812Z,4
2022-09-30T22:31:34.573Z,2
2022-09-30T22:37:24.242Z,8
2022-09-30T22:43:00.055Z,8
2022-09-30T22:48:39.051Z,4
2022-09-30T22:54:20.706Z,0
2022-09-30T22:59:57.599Z,4
2022-09-30T23:05:39.773Z,0
2022-09-30T23:11:37.552Z,0
2022-09-30T23:17:10.057Z,0
2022-09-30T23:22:46.016Z,0
2022-09-30T23:28:22.167Z,0
2022-09-30T23:33:58.150Z,0
2022-09-30T23:39:45.038Z,2
2022-09-30T23:45:25.963Z,0
2022-09-30T23:51:19.687Z,0
2022-09-30T23:56:58.868Z,0
